createdAt,value
2019-03-29T00:01:07.048Z,141.37
2019-03-29T00:03:35.027Z,142.72
2019-03-29T00:06:03.216Z,141.60
2019-03-29T00:08:31.160Z,141.57
2019-03-29T00:10:59.391Z,143.55
2019-03-29T00:13:27.003Z,141.73
2019-03-29T00:15:54.584Z,142.20
2019-03-29T00:18:22.246Z,142.37
2019-03-29T00:20:51.138Z,141.53
2019-03-29T00:23:18.827Z,141.85
2019-03-29T00:25:46.964Z,141.65
2019-03-29T00:28:14.527Z,141.80
2019-03-29T00:30:42.688Z,141.22
2019-03-29T00:33:10.414Z,142.95
2019-03-29T00:35:37.964Z,141.85
2019-03-29T00:38:06.114Z,142.77
2019-03-29T00:40:33.740Z,142.47
2019-03-29T00:43:01.499Z,142.13
2019-03-29T00:45:29.854Z,141.75
2019-03-29T00:47:57.471Z,142.72
2019-03-29T00:50:25.183Z,140.85
2019-03-29T00:52:53.307Z,141.28
2019-03-29T00:55:21.194Z,141.18
2019-03-29T00:57:48.778Z,140.80
2019-03-29T01:00:16.786Z,141.40
2019-03-29T01:02:45.399Z,141.80
2019-03-29T01:05:13.427Z,141.28
2019-03-29T01:07:41.211Z,141.35
2019-03-29T01:10:09.406Z,140.62
2019-03-29T01:12:36.997Z,142.05
2019-03-29T01:15:05.954Z,140.75
2019-03-29T01:17:33.675Z,140.43
2019-03-29T01:20:01.778Z,141.80
2019-03-29T01:22:29.475Z,141.73
2019-03-29T01:24:57.099Z,141.77
2019-03-29T01:27:25.236Z,141.92
2019-03-29T01:29:52.852Z,141.60
2019-03-29T01:32:21.605Z,144.65
2019-03-29T01:34:49.585Z,141.07
2019-03-29T01:37:17.289Z,142.30
2019-03-29T01:39:45.875Z,141.35
2019-03-29T01:42:14.090Z,141.68
2019-03-29T01:44:41.672Z,141.00
2019-03-29T01:47:09.318Z,141.77
2019-03-29T01:49:36.935Z,142.57
2019-03-29T01:52:06.470Z,141.35
2019-03-29T01:54:34.175Z,141.20
2019-03-29T01:57:01.740Z,142.18
2019-03-29T01:59:29.322Z,141.25
2019-03-29T02:01:56.977Z,141.22
2019-03-29T02:04:25.123Z,142.18
2019-03-29T02:06:52.691Z,141.28
2019-03-29T02:09:20.332Z,142.05
2019-03-29T02:11:48.478Z,141.90
2019-03-29T02:14:16.083Z,142.65
2019-03-29T02:16:43.831Z,141.90
2019-03-29T02:19:11.423Z,141.47
2019-03-29T02:21:39.239Z,141.18
2019-03-29T02:24:06.900Z,142.55
2019-03-29T02:26:34.917Z,141.73
2019-03-29T02:29:05.268Z,142.50
2019-03-29T02:31:33.233Z,142.05
2019-03-29T02:34:00.815Z,143.20
2019-03-29T02:36:28.831Z,142.40
2019-03-29T02:38:58.951Z,142.22
2019-03-29T02:41:26.432Z,141.68
2019-03-29T02:43:54.060Z,141.22
2019-03-29T02:46:21.855Z,140.70
2019-03-29T02:48:49.546Z,141.47
2019-03-29T02:51:17.151Z,141.55
2019-03-29T02:53:44.971Z,140.37
2019-03-29T02:56:12.917Z,141.73
2019-03-29T02:58:40.510Z,141.80
2019-03-29T03:01:08.461Z,140.70
2019-03-29T03:03:36.358Z,143.05
2019-03-29T03:06:04.909Z,142.45
2019-03-29T03:08:33.287Z,140.85
2019-03-29T03:11:00.980Z,141.62
2019-03-29T03:13:28.748Z,140.12
2019-03-29T03:15:56.400Z,141.35
2019-03-29T03:18:24.374Z,140.43
2019-03-29T03:20:51.937Z,141.10
2019-03-29T03:23:19.605Z,141.55
2019-03-29T03:25:47.245Z,140.28
2019-03-29T03:28:14.822Z,143.43
2019-03-29T03:30:42.692Z,143.80
2019-03-29T03:33:10.831Z,142.35
2019-03-29T03:35:38.637Z,141.25
2019-03-29T03:38:06.351Z,143.57
2019-03-29T03:40:35.243Z,142.90
2019-03-29T03:43:02.828Z,142.30
2019-03-29T03:45:31.738Z,142.62
2019-03-29T03:47:59.770Z,141.65
2019-03-29T03:50:38.872Z,142.20
2019-03-29T03:53:06.928Z,141.73
2019-03-29T03:55:37.683Z,141.18
2019-03-29T03:58:06.630Z,142.13
2019-03-29T04:00:53.412Z,142.70
2019-03-29T04:03:21.346Z,140.18
2019-03-29T04:05:49.029Z,143.15
2019-03-29T04:08:17.363Z,144.10
2019-03-29T04:10:45.098Z,142.95
2019-03-29T04:13:12.866Z,141.90
2019-03-29T04:15:40.593Z,141.70
2019-03-29T04:18:08.332Z,142.93
2019-03-29T04:20:35.912Z,142.28
2019-03-29T04:23:03.695Z,142.55
2019-03-29T04:25:32.339Z,141.70
2019-03-29T04:28:00.420Z,142.03
2019-03-29T04:30:28.361Z,142.07
2019-03-29T04:32:56.078Z,141.53
2019-03-29T04:35:24.070Z,139.57
2019-03-29T04:37:51.649Z,141.22
2019-03-29T04:40:19.259Z,140.73
2019-03-29T04:42:46.869Z,140.92
2019-03-29T04:45:14.472Z,142.00
2019-03-29T04:47:42.222Z,145.10
2019-03-29T04:50:09.784Z,142.28
2019-03-29T04:52:37.405Z,142.62
2019-03-29T04:55:05.539Z,140.28
2019-03-29T04:57:33.219Z,141.22
2019-03-29T05:00:00.808Z,140.68
2019-03-29T05:02:29.559Z,141.30
2019-03-29T05:04:57.149Z,140.62
2019-03-29T05:07:24.881Z,140.85
2019-03-29T05:09:53.080Z,141.47
2019-03-29T05:12:20.675Z,142.62
2019-03-29T05:14:48.260Z,141.28
2019-03-29T05:17:16.003Z,139.95
2019-03-29T05:19:44.720Z,140.73
2019-03-29T05:22:12.375Z,141.18
2019-03-29T05:24:40.327Z,142.75
2019-03-29T05:27:07.943Z,141.73
2019-03-29T05:29:35.728Z,140.10
2019-03-29T05:32:05.105Z,141.03
2019-03-29T05:34:32.747Z,142.07
2019-03-29T05:37:00.352Z,143.25
2019-03-29T05:39:28.521Z,141.22
2019-03-29T05:41:56.298Z,142.45
2019-03-29T05:44:23.978Z,141.32
2019-03-29T05:46:52.223Z,141.70
2019-03-29T05:49:19.799Z,141.45
2019-03-29T05:51:47.589Z,141.47
2019-03-29T05:54:15.184Z,142.37
2019-03-29T05:56:43.072Z,145.38
2019-03-29T05:59:10.929Z,144.75
2019-03-29T06:01:38.590Z,143.30
2019-03-29T06:04:06.614Z,143.00
2019-03-29T06:06:34.498Z,142.98
2019-03-29T06:09:03.876Z,143.65
2019-03-29T06:11:31.562Z,144.05
2019-03-29T06:14:00.315Z,143.43
2019-03-29T06:16:38.483Z,142.75
2019-03-29T06:18:57.969Z,144.90
2019-03-29T06:21:25.636Z,148.62
2019-03-29T06:23:53.291Z,144.57
2019-03-29T06:26:20.920Z,150.68
2019-03-29T06:28:49.784Z,150.32
2019-03-29T06:31:17.840Z,146.95
2019-03-29T06:33:45.857Z,147.00
2019-03-29T06:36:15.851Z,144.13
2019-03-29T06:38:45.952Z,148.93
2019-03-29T06:41:13.568Z,146.45
2019-03-29T06:43:41.237Z,146.57
2019-03-29T06:46:08.886Z,147.90
2019-03-29T06:48:36.552Z,145.65
2019-03-29T06:51:04.732Z,146.32
2019-03-29T06:53:34.303Z,144.80
2019-03-29T06:56:01.912Z,148.07
2019-03-29T06:58:30.899Z,147.60
2019-03-29T07:00:59.906Z,147.68
2019-03-29T07:03:29.260Z,146.65
2019-03-29T07:05:56.837Z,149.30
2019-03-29T07:08:24.715Z,147.68
2019-03-29T07:10:54.671Z,147.10
2019-03-29T07:13:22.301Z,147.85
2019-03-29T07:15:50.036Z,148.02
2019-03-29T07:18:17.716Z,147.53
2019-03-29T07:20:45.313Z,147.53
2019-03-29T07:23:13.819Z,147.65
2019-03-29T07:25:41.885Z,148.07
2019-03-29T07:28:09.508Z,149.82
2019-03-29T07:30:38.636Z,148.22
2019-03-29T07:33:07.617Z,149.23
2019-03-29T07:35:35.226Z,147.43
2019-03-29T07:38:03.012Z,148.10
2019-03-29T07:40:33.784Z,148.90
2019-03-29T07:43:03.453Z,149.05
2019-03-29T07:45:31.665Z,149.87
2019-03-29T07:47:59.226Z,151.32
2019-03-29T07:50:26.818Z,151.27
2019-03-29T07:52:54.871Z,150.25
2019-03-29T07:55:22.477Z,153.42
2019-03-29T07:57:50.065Z,151.85
2019-03-29T08:00:20.401Z,152.45
2019-03-29T08:02:52.608Z,149.70
2019-03-29T08:05:21.917Z,150.75
2019-03-29T08:07:50.004Z,150.53
2019-03-29T08:10:25.776Z,151.35
2019-03-29T08:12:49.235Z,150.00
2019-03-29T08:15:17.191Z,151.18
2019-03-29T08:17:44.917Z,151.18
2019-03-29T08:20:38.897Z,149.95
2019-03-29T08:22:42.484Z,151.37
2019-03-29T08:25:10.338Z,151.90
2019-03-29T08:27:37.929Z,151.12
2019-03-29T08:30:06.478Z,151.40
2019-03-29T08:32:34.360Z,151.30
2019-03-29T08:35:01.961Z,151.78
2019-03-29T08:37:31.052Z,150.78
2019-03-29T08:39:58.748Z,149.30
2019-03-29T08:42:26.315Z,151.70
2019-03-29T08:44:54.291Z,150.75
2019-03-29T08:47:22.105Z,149.80
2019-03-29T08:49:49.798Z,151.25
2019-03-29T08:52:17.374Z,150.27
2019-03-29T08:54:45.154Z,151.78
2019-03-29T08:57:14.529Z,148.50
2019-03-29T08:59:43.162Z,150.90
2019-03-29T09:02:10.950Z,150.45
2019-03-29T09:04:38.522Z,150.70
2019-03-29T09:07:06.269Z,148.70
2019-03-29T09:09:34.130Z,150.47
2019-03-29T09:12:13.686Z,148.53
2019-03-29T09:14:33.370Z,150.27
2019-03-29T09:17:01.099Z,147.87
2019-03-29T09:19:29.813Z,150.57
2019-03-29T09:21:57.411Z,149.02
2019-03-29T09:24:25.063Z,146.85
2019-03-29T09:26:52.673Z,149.15
2019-03-29T09:29:22.984Z,149.23
2019-03-29T09:31:50.646Z,147.17
2019-03-29T09:34:18.233Z,146.75
2019-03-29T09:36:46.235Z,147.75
2019-03-29T09:39:14.057Z,146.68
2019-03-29T09:41:42.031Z,146.50
2019-03-29T09:44:10.340Z,148.47
2019-03-29T09:46:40.454Z,147.05
2019-03-29T09:49:08.610Z,147.78
2019-03-29T09:51:38.050Z,148.15
2019-03-29T09:54:05.855Z,145.43
2019-03-29T09:56:39.179Z,147.00
2019-03-29T09:59:03.189Z,146.93
2019-03-29T10:01:32.123Z,148.38
2019-03-29T10:03:59.904Z,148.68
2019-03-29T10:06:27.893Z,148.35
2019-03-29T10:08:55.949Z,146.57
2019-03-29T10:11:23.866Z,145.53
2019-03-29T10:13:51.567Z,146.32
2019-03-29T10:16:19.288Z,145.87
2019-03-29T10:18:47.250Z,146.25
2019-03-29T10:21:17.154Z,145.62
2019-03-29T10:23:44.551Z,145.38
2019-03-29T10:26:12.115Z,145.80
2019-03-29T10:28:39.740Z,143.87
2019-03-29T10:31:07.452Z,147.45
2019-03-29T10:33:35.612Z,144.70
2019-03-29T10:36:03.415Z,145.80
2019-03-29T10:38:31.087Z,147.17
2019-03-29T10:40:58.677Z,145.28
2019-03-29T10:43:26.273Z,147.40
2019-03-29T10:45:55.093Z,146.98
2019-03-29T10:48:23.043Z,147.43
2019-03-29T10:50:50.735Z,146.85
2019-03-29T10:53:19.604Z,147.70
2019-03-29T10:55:48.511Z,147.05
2019-03-29T10:58:17.923Z,147.05
2019-03-29T11:00:46.020Z,149.10
2019-03-29T11:03:14.306Z,149.27
2019-03-29T11:05:42.166Z,149.12
2019-03-29T11:08:12.147Z,149.62
2019-03-29T11:10:39.590Z,148.75
2019-03-29T11:13:13.159Z,147.93
2019-03-29T11:15:36.907Z,145.32
2019-03-29T11:18:05.893Z,146.70
2019-03-29T11:20:33.458Z,146.75
2019-03-29T11:23:01.116Z,146.05
2019-03-29T11:25:30.593Z,145.17
2019-03-29T11:27:58.226Z,146.32
2019-03-29T11:30:25.950Z,146.57
2019-03-29T11:32:53.857Z,147.35
2019-03-29T11:35:21.492Z,148.62
2019-03-29T11:37:49.229Z,148.28
2019-03-29T11:40:17.321Z,149.57
2019-03-29T11:42:45.106Z,146.53
2019-03-29T11:45:13.078Z,146.93
2019-03-29T11:47:41.078Z,145.25
2019-03-29T11:50:09.003Z,144.10
2019-03-29T11:52:36.760Z,146.15
2019-03-29T11:55:05.166Z,145.02
2019-03-29T11:57:34.104Z,146.47
2019-03-29T12:00:01.983Z,147.70
2019-03-29T12:02:31.518Z,145.90
2019-03-29T12:04:59.666Z,145.80
2019-03-29T12:07:27.310Z,147.82
2019-03-29T12:09:55.264Z,146.62
2019-03-29T12:12:23.004Z,148.28
2019-03-29T12:14:50.633Z,146.18
2019-03-29T12:17:18.408Z,149.38
2019-03-29T12:19:48.242Z,148.20
2019-03-29T12:22:17.402Z,148.87
2019-03-29T12:24:45.018Z,147.37
2019-03-29T12:27:13.115Z,148.35
2019-03-29T12:29:42.079Z,148.45
2019-03-29T12:32:09.781Z,148.30
2019-03-29T12:34:37.827Z,148.28
2019-03-29T12:37:05.633Z,149.32
2019-03-29T12:39:33.317Z,151.72
2019-03-29T12:42:02.141Z,150.35
2019-03-29T12:44:30.877Z,149.87
2019-03-29T12:46:58.459Z,148.00
2019-03-29T12:49:26.527Z,148.55
2019-03-29T12:51:54.784Z,147.20
2019-03-29T12:54:24.141Z,150.10
2019-03-29T12:56:55.398Z,146.87
2019-03-29T12:59:28.898Z,147.17
2019-03-29T13:01:57.512Z,146.28
2019-03-29T13:04:25.291Z,150.75
2019-03-29T13:06:53.324Z,150.85
2019-03-29T13:09:21.159Z,150.30
2019-03-29T13:11:48.879Z,148.60
2019-03-29T13:14:16.544Z,149.62
2019-03-29T13:16:44.182Z,151.30
2019-03-29T13:19:12.231Z,151.95
2019-03-29T13:21:39.882Z,149.62
2019-03-29T13:24:07.812Z,148.70
2019-03-29T13:26:35.449Z,146.93
2019-03-29T13:29:03.361Z,148.75
2019-03-29T13:31:31.100Z,147.68
2019-03-29T13:33:58.911Z,147.65
2019-03-29T13:36:26.954Z,149.18
2019-03-29T13:38:56.528Z,150.55
2019-03-29T13:41:24.249Z,148.62
2019-03-29T13:43:51.865Z,149.40
2019-03-29T13:46:22.022Z,154.30
2019-03-29T13:48:49.719Z,151.20
2019-03-29T13:51:17.334Z,150.38
2019-03-29T13:53:45.202Z,151.82
2019-03-29T13:56:12.953Z,149.65
2019-03-29T13:58:40.564Z,150.45
2019-03-29T14:01:08.726Z,149.72
2019-03-29T14:03:36.359Z,149.07
2019-03-29T14:06:04.049Z,149.50
2019-03-29T14:08:31.894Z,148.97
2019-03-29T14:11:00.037Z,148.05
2019-03-29T14:13:27.884Z,148.40
2019-03-29T14:15:55.981Z,149.75
2019-03-29T14:18:23.907Z,148.47
2019-03-29T14:20:51.758Z,148.43
2019-03-29T14:23:19.788Z,150.42
2019-03-29T14:25:47.892Z,150.87
2019-03-29T14:28:15.616Z,152.25
2019-03-29T14:30:43.685Z,154.53
2019-03-29T14:33:11.339Z,153.32
2019-03-29T14:35:38.958Z,154.57
2019-03-29T14:38:06.790Z,151.93
2019-03-29T14:40:34.499Z,152.95
2019-03-29T14:43:03.597Z,156.35
2019-03-29T14:45:31.337Z,155.07
2019-03-29T14:47:58.955Z,152.27
2019-03-29T14:50:27.993Z,153.85
2019-03-29T14:52:55.626Z,152.85
2019-03-29T14:55:23.790Z,153.27
2019-03-29T14:57:52.494Z,151.45
2019-03-29T15:00:36.642Z,154.38
2019-03-29T15:03:04.396Z,154.10
2019-03-29T15:05:35.295Z,151.40
2019-03-29T15:08:03.203Z,153.97
2019-03-29T15:10:31.101Z,151.93
2019-03-29T15:12:58.948Z,152.30
2019-03-29T15:15:26.819Z,153.07
2019-03-29T15:17:54.916Z,153.07
2019-03-29T15:20:23.622Z,154.80
2019-03-29T15:22:51.701Z,153.47
2019-03-29T15:25:19.489Z,153.75
2019-03-29T15:27:47.073Z,153.68
2019-03-29T15:30:14.802Z,151.20
2019-03-29T15:32:42.405Z,151.95
2019-03-29T15:35:10.265Z,152.20
2019-03-29T15:37:37.882Z,150.18
2019-03-29T15:40:06.975Z,152.95
2019-03-29T15:42:34.590Z,152.45
2019-03-29T15:45:19.251Z,151.60
2019-03-29T15:47:35.439Z,150.50
2019-03-29T15:50:03.977Z,151.55
2019-03-29T15:52:32.014Z,152.53
2019-03-29T15:54:59.691Z,151.82
2019-03-29T15:57:27.836Z,151.70
2019-03-29T15:59:55.525Z,153.82
2019-03-29T16:02:24.947Z,151.10
2019-03-29T16:04:54.761Z,156.72
2019-03-29T16:07:22.492Z,156.78
2019-03-29T16:09:50.711Z,153.78
2019-03-29T16:12:18.420Z,154.63
2019-03-29T16:14:46.230Z,153.07
2019-03-29T16:17:14.329Z,155.72
2019-03-29T16:19:46.334Z,154.30
2019-03-29T16:22:14.021Z,151.72
2019-03-29T16:24:41.639Z,150.90
2019-03-29T16:27:09.386Z,151.80
2019-03-29T16:29:38.055Z,151.35
2019-03-29T16:32:05.634Z,152.53
2019-03-29T16:34:33.297Z,150.60
2019-03-29T16:37:00.964Z,150.65
2019-03-29T16:39:28.780Z,149.65
2019-03-29T16:41:56.510Z,152.60
2019-03-29T16:44:24.777Z,151.55
2019-03-29T16:46:52.404Z,151.15
2019-03-29T16:49:35.057Z,153.15
2019-03-29T16:52:02.782Z,150.87
2019-03-29T16:54:30.538Z,150.50
2019-03-29T16:56:59.120Z,149.72
2019-03-29T16:59:27.152Z,148.70
2019-03-29T17:01:54.906Z,148.15
2019-03-29T17:04:22.559Z,148.17
2019-03-29T17:06:50.350Z,147.57
2019-03-29T17:09:18.184Z,148.75
2019-03-29T17:11:46.107Z,149.68
2019-03-29T17:14:14.189Z,147.85
2019-03-29T17:16:41.923Z,147.13
2019-03-29T17:19:10.340Z,147.37
2019-03-29T17:21:37.917Z,146.80
2019-03-29T17:24:05.537Z,147.50
2019-03-29T17:26:33.316Z,148.30
2019-03-29T17:29:01.482Z,148.35
2019-03-29T17:31:29.157Z,148.40
2019-03-29T17:33:56.922Z,150.03
2019-03-29T17:36:25.625Z,150.35
2019-03-29T17:38:54.582Z,147.98
2019-03-29T17:41:22.651Z,147.80
2019-03-29T17:43:54.061Z,147.43
2019-03-29T17:46:23.757Z,147.80
2019-03-29T17:48:53.855Z,146.87
2019-03-29T17:51:21.630Z,146.07
2019-03-29T17:53:49.398Z,145.72
2019-03-29T17:56:17.846Z,146.00
2019-03-29T17:58:45.416Z,145.32
2019-03-29T18:01:13.066Z,145.10
2019-03-29T18:03:41.385Z,147.53
2019-03-29T18:06:08.935Z,148.72
2019-03-29T18:08:36.683Z,145.77
2019-03-29T18:11:04.339Z,146.80
2019-03-29T18:13:32.283Z,147.87
2019-03-29T18:15:59.861Z,145.47
2019-03-29T18:18:27.552Z,145.22
2019-03-29T18:20:55.518Z,145.30
2019-03-29T18:23:25.025Z,144.40
2019-03-29T18:25:53.440Z,145.15
2019-03-29T18:28:21.083Z,144.75
2019-03-29T18:30:49.073Z,142.87
2019-03-29T18:33:16.781Z,142.75
2019-03-29T18:35:44.695Z,142.98
2019-03-29T18:38:12.558Z,142.37
2019-03-29T18:40:40.278Z,142.03
2019-03-29T18:43:09.089Z,143.28
2019-03-29T18:45:36.851Z,143.22
2019-03-29T18:48:05.112Z,143.47
2019-03-29T18:50:32.698Z,142.55
2019-03-29T18:53:00.353Z,142.35
2019-03-29T18:55:29.151Z,142.35
2019-03-29T18:57:56.723Z,144.68
2019-03-29T19:00:31.872Z,145.65
2019-03-29T19:02:59.453Z,145.17
2019-03-29T19:05:27.959Z,147.62
2019-03-29T19:07:55.829Z,144.82
2019-03-29T19:10:23.764Z,143.82
2019-03-29T19:12:51.404Z,146.00
2019-03-29T19:15:19.531Z,145.22
2019-03-29T19:17:49.949Z,143.47
2019-03-29T19:20:27.496Z,143.15
2019-03-29T19:22:47.711Z,143.93
2019-03-29T19:25:15.305Z,143.70
2019-03-29T19:27:44.348Z,142.98
2019-03-29T19:30:12.452Z,143.35
2019-03-29T19:32:40.081Z,144.65
2019-03-29T19:35:08.632Z,141.65
2019-03-29T19:37:36.375Z,145.10
2019-03-29T19:40:04.555Z,145.35
2019-03-29T19:42:32.444Z,141.70
2019-03-29T19:45:00.372Z,141.18
2019-03-29T19:47:28.292Z,142.85
2019-03-29T19:49:57.082Z,143.02
2019-03-29T19:52:25.171Z,142.72
2019-03-29T19:54:53.016Z,142.50
2019-03-29T19:57:20.654Z,142.80
2019-03-29T19:59:48.870Z,144.50
2019-03-29T20:02:16.731Z,143.32
2019-03-29T20:04:44.429Z,143.45
2019-03-29T20:07:12.112Z,141.70
2019-03-29T20:09:42.083Z,142.50
2019-03-29T20:12:09.507Z,141.95
2019-03-29T20:14:37.882Z,142.15
2019-03-29T20:17:05.492Z,142.82
2019-03-29T20:19:33.322Z,143.22
2019-03-29T20:22:01.529Z,145.53
2019-03-29T20:24:29.329Z,143.20
2019-03-29T20:26:56.951Z,142.55
2019-03-29T20:29:24.698Z,143.28
2019-03-29T20:31:54.171Z,142.95
2019-03-29T20:34:21.769Z,143.87
2019-03-29T20:36:49.843Z,144.07
2019-03-29T20:39:17.509Z,146.05
2019-03-29T20:41:45.147Z,144.75
2019-03-29T20:44:12.938Z,143.75
2019-03-29T20:46:40.703Z,143.30
2019-03-29T20:49:08.317Z,143.28
2019-03-29T20:51:38.874Z,143.05
2019-03-29T20:54:07.649Z,144.95
2019-03-29T20:56:35.407Z,143.35
2019-03-29T20:59:03.170Z,144.32
2019-03-29T21:01:30.985Z,144.55
2019-03-29T21:03:58.872Z,142.93
2019-03-29T21:06:26.734Z,141.82
2019-03-29T21:08:54.811Z,142.65
2019-03-29T21:11:22.435Z,142.18
2019-03-29T21:13:50.644Z,144.10
2019-03-29T21:16:18.596Z,144.07
2019-03-29T21:19:00.035Z,142.22
2019-03-29T21:21:28.110Z,144.43
2019-03-29T21:23:55.949Z,143.82
2019-03-29T21:26:23.812Z,143.15
2019-03-29T21:28:52.985Z,143.05
2019-03-29T21:31:20.882Z,142.75
2019-03-29T21:33:48.569Z,142.95
2019-03-29T21:36:18.201Z,141.20
2019-03-29T21:38:46.195Z,141.77
2019-03-29T21:41:14.100Z,142.53
2019-03-29T21:43:42.264Z,141.92
2019-03-29T21:46:09.903Z,141.35
2019-03-29T21:48:37.763Z,141.77
2019-03-29T21:51:05.801Z,142.20
2019-03-29T21:53:33.442Z,141.50
2019-03-29T21:56:01.463Z,143.47
2019-03-29T21:58:29.552Z,143.85
2019-03-29T22:00:57.265Z,143.22
2019-03-29T22:03:25.027Z,142.55
2019-03-29T22:05:53.742Z,140.45
2019-03-29T22:08:21.582Z,140.47
2019-03-29T22:10:49.228Z,141.95
2019-03-29T22:13:17.433Z,140.65
2019-03-29T22:15:45.509Z,142.45
2019-03-29T22:18:13.134Z,142.05
2019-03-29T22:20:41.144Z,141.10
2019-03-29T22:23:08.778Z,140.25
2019-03-29T22:25:36.421Z,141.30
2019-03-29T22:28:04.670Z,141.25
2019-03-29T22:30:32.278Z,141.82
2019-03-29T22:33:03.729Z,141.47
2019-03-29T22:35:30.300Z,142.35
2019-03-29T22:37:58.011Z,143.22
2019-03-29T22:40:25.796Z,141.62
2019-03-29T22:42:54.631Z,140.92
2019-03-29T22:45:22.244Z,139.95
2019-03-29T22:47:49.927Z,140.20
2019-03-29T22:50:20.233Z,143.68
2019-03-29T22:52:48.093Z,139.90
2019-03-29T22:55:16.001Z,140.73
2019-03-29T22:57:43.802Z,141.37
2019-03-29T23:00:18.737Z,140.45
2019-03-29T23:02:48.662Z,142.18
2019-03-29T23:05:16.268Z,141.62
2019-03-29T23:07:44.032Z,141.12
2019-03-29T23:10:12.448Z,143.32
2019-03-29T23:12:40.226Z,140.88
2019-03-29T23:15:07.887Z,143.28
2019-03-29T23:17:35.580Z,142.03
2019-03-29T23:20:03.262Z,143.22
2019-03-29T23:22:31.036Z,142.18
2019-03-29T23:24:58.796Z,141.20
2019-03-29T23:27:28.001Z,141.50
2019-03-29T23:29:55.830Z,142.37
2019-03-29T23:32:23.505Z,142.75
2019-03-29T23:34:51.774Z,141.75
2019-03-29T23:37:19.572Z,143.70
2019-03-29T23:39:47.491Z,141.07
2019-03-29T23:42:17.288Z,140.68
2019-03-29T23:44:45.217Z,140.80
2019-03-29T23:47:13.295Z,141.32
2019-03-29T23:49:42.432Z,139.95
2019-03-29T23:52:11.300Z,140.88
2019-03-29T23:54:38.994Z,140.52
2019-03-29T23:57:07.720Z,139.57
2019-03-29T23:59:35.473Z,141.18
